Fort Reliance, Canada
Current Conditions -  °F | °C
As of 5:00 PM on Thursday 18 Dec 2014 (Local Time) from CYZF Reporting Station
Light Snow Light Snow  
Wind Chill: -10°   Ceiling: 500
Heat Index:   Visibility: 5mi
Dew Point: -2°   Wind: 6mph
Humidity: 85%   Direction: 300°WNW
Pressure: 29.78"   Gusts: NA
Location:  62.71°N, 109.15°W
Report Text: CYZF 190000Z 30005KT 5SM -SN BR BKN005 M17/M19 A2978 RMK SC7 SLP107
Loading
Personal Weather Stations






























Interactive Weather Map New forecast layout! Learn more

10-Day Weather Forecast

Advertisements
Track Severe Weather on mobile